Latest Weather Observations for Mount Buller

IDV60801

Issued at 9:32 am EDT Wednesday 18 October 2017 (issued every 30 minutes, with the page automatically refreshed every 10 minutes)

About weather observations | Map of weather stations | Latest weather observations for VIC | Other Formats
Station Details ID: 083024 Name: MOUNT BULLER Lat: -37.15 Lon: 146.44 Height: 1707.0 m
Data from the previous 72 hours. | See also: Recent months at Mount Buller
Date/Time
EDT
Temp
°C
App
Temp
°C
Dew
Point
°C
Rel
Hum
%
Delta-T
°C
Wind Press
QNH
hPa
Press
MSL
hPa
Rain since
9am
mm
Dir  Spd
km/h
Gust
km/h
Spd
kts
Gust
kts
18/09:30am 12.2 6.9 4.9 61 3.7 - 22 28 12 15 - - -
18/09:00am 11.8 5.7 4.8 62 3.5 - 26 32 14 17 - - 0.0
18/08:30am 10.8 - 3.4 60 3.6 - - - - - - - -
18/08:00am 10.5 - 2.6 58 3.8 - - - - - - - -
18/07:30am 10.3 - 1.7 55 4.0 - - - - - - - -
18/07:00am 10.4 - 1.2 53 4.2 - - - - - - - -
18/06:30am 10.3 - 0.6 51 4.4 - - - - - - - -
18/06:00am 10.7 - -0.7 45 5.1 - - - - - - - -
18/05:30am 10.9 - -0.2 46 5.0 - - - - - - - -
18/05:00am 10.5 - 0.5 50 4.5 - - - - - - - -
18/04:30am 11.1 - -0.1 46 5.0 - - - - - - - -
18/04:00am 10.8 - -1.3 43 5.3 - - - - - - - -
18/03:30am 11.7 - -0.1 44 5.3 - - - - - - - -
18/03:00am 11.6 - -1.5 40 5.7 - - - - - - - 0.0
18/02:30am 11.7 - -2.1 38 6.0 - - - - - - - -
18/02:00am 11.9 - -4.2 32 6.7 - - - - - - - -
18/01:30am 12.3 - -3.9 32 6.8 - - - - - - - -
18/01:00am 12.1 - -5.4 29 7.1 - - - - - - - -
18/12:30am 12.1 - -6.3 27 7.3 - - - - - - - -
18/12:00am 12.0 - -6.9 26 7.4 - - - - - - - -
 
Date/Time
EDT
Temp
°C
App
Temp
°C
Dew
Point
°C
Rel
Hum
%
Delta-T
°C
Wind Press
QNH
hPa
Press
MSL
hPa
Rain since
9am
mm
Dir  Spd
km/h
Gust
km/h
Spd
kts
Gust
kts
17/11:30pm 11.6 - -4.9 31 6.7 - - - - - - - -
17/11:00pm 12.2 - -5.3 29 7.1 - - - - - - - -
17/10:30pm 12.3 - -5.7 28 7.2 - - - - - - - -
17/10:00pm 11.9 - -4.7 31 6.8 - - - - - - - -
17/09:30pm 12.3 - -2.7 35 6.5 - - - - - - - -
17/09:00pm 11.3 - 0.1 46 5.1 - - - - - - - 0.0
17/08:30pm 12.1 - 0.5 45 5.3 - - - - - - - -
17/08:00pm 12.6 - 1.3 46 5.3 - - - - - - - -
17/07:30pm 12.1 - 1.1 47 5.1 - - - - - - - -
17/07:00pm 13.6 - 0.9 42 6.0 - - - - - - - -
17/06:30pm 13.9 - 0.9 41 6.1 - - - - - - - -
17/06:00pm 15.0 - 1.5 40 6.5 - - - - - - - -
17/05:30pm 15.6 - 0.6 36 7.1 - - - - - - - -
17/05:00pm 16.3 - -1.3 30 8.1 - - - - - - - -
17/04:30pm 15.8 - -2.2 29 8.1 - - - - - - - -
17/04:00pm 16.3 - -1.3 30 8.1 - - - - - - - -
17/03:30pm 16.3 - -1.3 30 8.1 - - - - - - - -
17/03:00pm 16.9 - 0.5 33 7.8 - - - - - - - 0.0
17/02:30pm 17.6 - -2.1 26 9.0 - - - - - - - -
17/02:00pm 16.4 - -3.1 26 8.6 - - - - - - - -
17/01:30pm 15.7 - -4.8 24 8.7 - - - - - - - -
17/01:00pm 14.6 - -1.9 32 7.4 - - - - - - - -
17/12:30pm 15.9 - 3.0 42 6.4 - - - - - - - -
17/12:00pm 14.9 - 1.8 41 6.3 - - - - - - - -
17/11:30am 14.4 - 4.1 50 5.2 - - - - - - - -
17/11:00am 12.7 - 3.4 53 4.6 - - - - - - - -
17/10:30am 12.8 - 3.7 54 4.5 - - - - - - - -
17/10:00am 12.6 - 3.3 53 4.6 - - - - - - - -
17/09:30am 12.0 - 2.5 52 4.6 - - - - - - - -
17/09:00am 11.8 - 2.8 54 4.3 - - - - - - - 0.0
17/08:30am 10.9 - -0.9 44 5.2 - - - - - - - -
17/08:00am 10.3 - 2.4 58 3.7 - - - - - - - -
17/07:30am 9.7 - 3.0 63 3.2 - - - - - - - -
17/07:00am 9.0 - 3.2 67 2.8 - - - - - - - -
17/06:30am 8.6 - 3.6 71 2.4 - - - - - - - -
17/06:00am 8.0 - 4.0 76 1.9 - - - - - - - -
17/05:30am 9.1 - 3.1 66 2.9 - - - - - - - -
17/05:00am 9.5 - 1.4 57 3.7 - - - - - - - -
17/04:30am 9.7 - 1.6 57 3.7 - - - - - - - -
17/04:00am 9.7 - 3.2 64 3.1 - - - - - - - -
17/03:30am 10.2 - 5.6 73 2.3 - - - - - - - -
17/03:00am 10.4 - 6.0 74 2.3 - - - - - - - 0.0
17/02:30am 10.2 - 6.7 79 1.8 - - - - - - - -
17/02:00am 10.1 - 7.0 81 1.6 - - - - - - - -
17/01:30am 10.1 - 6.8 80 1.7 - - - - - - - -
17/01:00am 10.7 - 7.0 78 1.9 - - - - - - - -
17/12:30am 11.0 - 7.1 77 2.0 - - - - - - - -
17/12:00am 10.8 - 6.9 77 2.0 - - - - - - - -
 
Date/Time
EDT
Temp
°C
App
Temp
°C
Dew
Point
°C
Rel
Hum
%
Delta-T
°C
Wind Press
QNH
hPa
Press
MSL
hPa
Rain since
9am
mm
Dir  Spd
km/h
Gust
km/h
Spd
kts
Gust
kts
16/11:30pm 9.5 - 6.4 81 1.6 - - - - - - - -
16/11:00pm 10.6 - 7.3 80 1.7 - - - - - - - -
16/10:30pm 10.2 - 7.3 82 1.5 - - - - - - - -
16/10:00pm 9.8 - 6.9 82 1.5 - - - - - - - -
16/09:30pm 9.5 - 6.4 81 1.6 - - - - - - - -
16/09:00pm 9.6 - 6.7 82 1.5 - - - - - - - 0.0
16/08:30pm 10.7 - 7.2 79 1.8 - - - - - - - -
16/08:00pm 10.5 - 6.8 78 1.9 - - - - - - - -
16/07:30pm 10.6 - 6.6 76 2.1 - - - - - - - -
16/07:00pm 12.1 - 7.2 72 2.6 - - - - - - - -
16/06:30pm 14.0 - 7.8 66 3.4 - - - - - - - -
16/06:00pm 13.9 - 7.4 65 3.5 - - - - - - - -
16/05:30pm 14.4 - 7.2 62 3.9 - - - - - - - -
16/05:00pm 14.4 - 7.0 61 4.0 - - - - - - - -
16/04:30pm 14.3 - 6.2 58 4.3 - - - - - - - -
16/04:00pm 14.5 - 7.1 61 4.0 - - - - - - - -
16/03:30pm 13.4 - 6.0 61 3.9 - - - - - - - -
16/03:00pm 12.8 - 6.2 64 3.4 - - - - - - - 0.0
16/02:30pm 12.8 - 5.5 61 3.8 - - - - - - - -
16/02:00pm 14.0 - 7.1 63 3.7 - - - - - - - -
16/01:30pm 12.7 - 7.0 68 3.0 - - - - - - - -
16/01:00pm 14.2 - 7.9 66 3.4 - - - - - - - -
16/12:30pm 12.7 - 7.0 68 3.0 - - - - - - - -
16/12:00pm 11.5 - 6.2 70 2.7 - - - - - - - -
16/11:30am 12.5 - 7.6 72 2.6 - - - - - - - -
16/11:00am 12.0 - 6.9 71 2.7 - - - - - - - -
16/10:30am 10.3 - 5.9 74 2.2 - - - - - - - -
16/10:00am 10.7 - 6.3 74 2.3 - - - - - - - -
16/09:30am 10.3 - 6.1 75 2.2 - - - - - - - -
16/09:00am 9.3 - 5.5 77 1.9 - - - - - - - 0.0
16/08:30am 8.9 - 6.2 83 1.4 - - - - - - - -
16/08:00am 8.2 - 6.3 88 1.0 - - - - - - - -
16/07:30am 7.7 - 6.6 93 0.6 - - - - - - - -
16/07:00am 7.5 - 6.0 90 0.8 - - - - - - - -
16/06:30am 6.8 - 5.9 94 0.4 - - - - - - - -
16/06:00am 7.7 - 5.5 86 1.1 - - - - - - - -
16/05:30am 7.9 - 4.5 79 1.7 - - - - - - - -
16/05:00am 8.3 - 4.5 77 1.9 - - - - - - - -
16/04:30am 8.8 - 4.4 74 2.2 - - - - - - - -
16/04:00am 8.4 - 5.3 81 1.5 - - - - - - - -
16/03:30am 9.0 - 6.1 82 1.5 - - - - - - - -
16/03:00am 8.5 - 6.3 86 1.1 - - - - - - - 0.0
16/02:30am 8.8 - 6.3 84 1.3 - - - - - - - -
16/02:00am 8.8 - 6.8 87 1.0 - - - - - - - -
16/01:30am 9.4 - 6.3 81 1.6 - - - - - - - -
16/01:00am 8.9 - 7.2 89 0.9 - - - - - - - -
16/12:30am 9.1 - 6.9 86 1.1 - - - - - - - -
16/12:00am 9.7 - 7.1 84 1.4 - - - - - - - -
 
Date/Time
EDT
Temp
°C
App
Temp
°C
Dew
Point
°C
Rel
Hum
%
Delta-T
°C
Wind Press
QNH
hPa
Press
MSL
hPa
Rain since
9am
mm
Dir  Spd
km/h
Gust
km/h
Spd
kts
Gust
kts
15/11:30pm 10.0 - 7.3 83 1.4 - - - - - - - -
15/11:00pm 9.8 - 6.5 80 1.7 - - - - - - - -
15/10:30pm 9.7 - 6.2 79 1.8 - - - - - - - -
15/10:00pm 8.6 - 5.5 81 1.5 - - - - - - - -
15/09:30pm 8.7 - 5.6 81 1.6 - - - - - - - -
15/09:00pm 9.1 - 6.9 86 1.1 - - - - - - - 0.0
15/08:30pm 8.5 - 6.0 84 1.3 - - - - - - - -
15/08:00pm 8.9 - 6.3 84 1.3 - - - - - - - -
15/07:30pm 9.3 - 6.2 81 1.6 - - - - - - - -
15/07:00pm 9.8 - 6.3 79 1.8 - - - - - - - -
15/06:30pm 10.7 - 6.8 77 2.0 - - - - - - - -
15/06:00pm 11.5 - 6.8 73 2.5 - - - - - - - -
15/05:30pm 11.5 - 6.8 73 2.5 - - - - - - - -
15/05:00pm 12.2 - 7.9 75 2.3 - - - - - - - -
15/04:30pm 11.6 - 7.7 77 2.1 - - - - - - - -
15/04:00pm 11.6 - 7.3 75 2.3 - - - - - - - -
15/03:30pm 11.9 - 7.8 76 2.2 - - - - - - - -
15/03:00pm 12.3 - 7.2 71 2.7 - - - - - - - 0.0
15/02:30pm 11.4 - 7.1 75 2.3 - - - - - - - -
15/02:00pm 11.1 - 6.8 75 2.2 - - - - - - - -
15/01:30pm 11.2 - 7.3 77 2.1 - - - - - - - -
15/01:00pm 11.1 - 7.8 80 1.8 - - - - - - - -
15/12:30pm 10.2 - 6.2 76 2.1 - - - - - - - -
15/12:00pm 11.6 - 6.5 71 2.7 - - - - - - - -
15/11:30am 10.1 - 5.1 71 2.5 - - - - - - - -
15/11:00am 10.1 - 5.5 73 2.3 - - - - - - - -
15/10:30am 9.5 - 4.1 69 2.6 - - - - - - - -
15/10:00am 9.3 - 4.3 71 2.4 - - - - - - - -

Other Formats:

Comma delimited format used in spreadsheet applications
http://www.bom.gov.au/fwo/IDV60801/IDV60801.94894.axf

JavaScript Object Notation format (JSON) in row-major order
http://www.bom.gov.au/fwo/IDV60801/IDV60801.94894.json